sensor_id;sensor_type;location;lat;lon;timestamp;P1;durP1;ratioP1;P2;durP2;ratioP2
14007;SDS011;61651;45.508;12.232;2023-04-01T00:01:57;25.98;;;19.73;;
14007;SDS011;61651;45.508;12.232;2023-04-01T00:04:59;22.33;;;18.77;;
14007;SDS011;61651;45.508;12.232;2023-04-01T00:08:03;26.10;;;18.80;;
14007;SDS011;61651;45.508;12.232;2023-04-01T00:11:05;24.15;;;18.45;;
14007;SDS011;61651;45.508;12.232;2023-04-01T00:14:07;23.65;;;19.23;;
14007;SDS011;61651;45.508;12.232;2023-04-01T00:17:10;25.42;;;20.73;;
14007;SDS011;61651;45.508;12.232;2023-04-01T00:20:12;24.23;;;19.47;;
14007;SDS011;61651;45.508;12.232;2023-04-01T00:23:16;26.13;;;19.50;;
14007;SDS011;61651;45.508;12.232;2023-04-01T00:26:18;24.37;;;19.23;;
14007;SDS011;61651;45.508;12.232;2023-04-01T00:29:21;24.13;;;19.83;;
14007;SDS011;61651;45.508;12.232;2023-04-01T00:32:24;27.47;;;20.27;;
14007;SDS011;61651;45.508;12.232;2023-04-01T00:35:26;26.35;;;21.15;;
14007;SDS011;61651;45.508;12.232;2023-04-01T00:38:30;24.83;;;20.03;;
14007;SDS011;61651;45.508;12.232;2023-04-01T00:41:32;26.50;;;20.67;;
14007;SDS011;61651;45.508;12.232;2023-04-01T00:44:34;24.63;;;20.67;;
14007;SDS011;61651;45.508;12.232;2023-04-01T00:47:38;25.73;;;20.37;;
14007;SDS011;61651;45.508;12.232;2023-04-01T00:50:40;28.20;;;20.35;;
14007;SDS011;61651;45.508;12.232;2023-04-01T00:53:48;23.55;;;21.05;;
14007;SDS011;61651;45.508;12.232;2023-04-01T00:56:54;24.88;;;19.38;;
14007;SDS011;61651;45.508;12.232;2023-04-01T00:59:58;24.15;;;19.52;;
14007;SDS011;61651;45.508;12.232;2023-04-01T01:03:00;24.65;;;20.23;;
14007;SDS011;61651;45.508;12.232;2023-04-01T01:06:08;27.90;;;20.67;;
14007;SDS011;61651;45.508;12.232;2023-04-01T01:09:29;27.17;;;20.73;;
14007;SDS011;61651;45.508;12.232;2023-04-01T01:12:38;24.27;;;19.83;;
14007;SDS011;61651;45.508;12.232;2023-04-01T01:15:46;27.05;;;21.17;;
14007;SDS011;61651;45.508;12.232;2023-04-01T01:18:55;31.13;;;24.57;;
14007;SDS011;61651;45.508;12.232;2023-04-01T01:22:12;29.55;;;23.52;;
14007;SDS011;61651;45.508;12.232;2023-04-01T01:25:39;29.05;;;22.58;;
14007;SDS011;61651;45.508;12.232;2023-04-01T01:28:45;25.70;;;22.50;;
14007;SDS011;61651;45.508;12.232;2023-04-01T01:31:58;25.60;;;21.58;;
14007;SDS011;61651;45.508;12.232;2023-04-01T01:38:29;24.77;;;20.90;;
14007;SDS011;61651;45.508;12.232;2023-04-01T01:41:34;26.23;;;20.87;;
14007;SDS011;61651;45.508;12.232;2023-04-01T01:44:37;26.77;;;20.70;;
14007;SDS011;61651;45.508;12.232;2023-04-01T01:47:40;24.63;;;19.37;;
14007;SDS011;61651;45.508;12.232;2023-04-01T01:50:45;23.77;;;19.50;;
14007;SDS011;61651;45.508;12.232;2023-04-01T01:53:49;20.50;;;17.90;;
14007;SDS011;61651;45.508;12.232;2023-04-01T01:56:51;22.07;;;18.40;;
14007;SDS011;61651;45.508;12.232;2023-04-01T01:59:58;20.57;;;18.13;;
14007;SDS011;61651;45.508;12.232;2023-04-01T02:03:04;23.27;;;18.00;;
14007;SDS011;61651;45.508;12.232;2023-04-01T02:06:09;18.77;;;16.20;;
14007;SDS011;61651;45.508;12.232;2023-04-01T02:09:12;19.10;;;17.13;;
14007;SDS011;61651;45.508;12.232;2023-04-01T02:12:14;19.35;;;16.88;;
14007;SDS011;61651;45.508;12.232;2023-04-01T02:15:18;19.97;;;16.07;;
14007;SDS011;61651;45.508;12.232;2023-04-01T02:18:22;18.77;;;16.30;;
14007;SDS011;61651;45.508;12.232;2023-04-01T02:21:26;19.83;;;16.13;;
14007;SDS011;61651;45.508;12.232;2023-04-01T02:24:32;18.43;;;15.70;;
14007;SDS011;61651;45.508;12.232;2023-04-01T02:27:37;18.70;;;15.60;;
14007;SDS011;61651;45.508;12.232;2023-04-01T02:30:39;19.67;;;15.67;;
14007;SDS011;61651;45.508;12.232;2023-04-01T02:33:44;18.57;;;14.70;;
14007;SDS011;61651;45.508;12.232;2023-04-01T02:36:48;18.53;;;15.93;;
14007;SDS011;61651;45.508;12.232;2023-04-01T02:39:51;19.13;;;15.50;;
14007;SDS011;61651;45.508;12.232;2023-04-01T02:42:53;17.63;;;14.23;;
14007;SDS011;61651;45.508;12.232;2023-04-01T02:45:55;19.80;;;15.63;;
14007;SDS011;61651;45.508;12.232;2023-04-01T02:48:57;17.23;;;15.43;;
14007;SDS011;61651;45.508;12.232;2023-04-01T02:52:01;17.73;;;15.83;;
14007;SDS011;61651;45.508;12.232;2023-04-01T02:55:03;18.20;;;15.30;;
14007;SDS011;61651;45.508;12.232;2023-04-01T02:58:07;17.27;;;15.47;;
14007;SDS011;61651;45.508;12.232;2023-04-01T03:01:09;20.47;;;16.80;;
14007;SDS011;61651;45.508;12.232;2023-04-01T03:04:11;18.17;;;15.93;;
14007;SDS011;61651;45.508;12.232;2023-04-01T03:07:15;16.60;;;14.90;;
14007;SDS011;61651;45.508;12.232;2023-04-01T03:10:17;17.90;;;14.50;;
14007;SDS011;61651;45.508;12.232;2023-04-01T03:13:19;15.83;;;14.07;;
14007;SDS011;61651;45.508;12.232;2023-04-01T03:16:21;18.67;;;14.97;;
14007;SDS011;61651;45.508;12.232;2023-04-01T03:19:23;16.63;;;14.40;;
14007;SDS011;61651;45.508;12.232;2023-04-01T03:22:26;17.70;;;14.43;;
14007;SDS011;61651;45.508;12.232;2023-04-01T03:25:28;17.80;;;14.63;;
14007;SDS011;61651;45.508;12.232;2023-04-01T03:28:30;16.70;;;14.53;;
14007;SDS011;61651;45.508;12.232;2023-04-01T03:31:32;17.93;;;14.70;;
14007;SDS011;61651;45.508;12.232;2023-04-01T03:34:34;17.30;;;14.63;;
14007;SDS011;61651;45.508;12.232;2023-04-01T03:37:38;17.40;;;15.07;;
14007;SDS011;61651;45.508;12.232;2023-04-01T03:40:41;17.07;;;15.23;;
14007;SDS011;61651;45.508;12.232;2023-04-01T03:43:44;16.37;;;14.67;;
14007;SDS011;61651;45.508;12.232;2023-04-01T03:46:46;16.87;;;14.83;;
14007;SDS011;61651;45.508;12.232;2023-04-01T03:49:48;14.50;;;12.97;;
14007;SDS011;61651;45.508;12.232;2023-04-01T03:52:51;18.17;;;14.50;;
14007;SDS011;61651;45.508;12.232;2023-04-01T03:55:53;17.03;;;15.33;;
14007;SDS011;61651;45.508;12.232;2023-04-01T03:58:55;16.77;;;14.33;;
14007;SDS011;61651;45.508;12.232;2023-04-01T04:01:57;15.53;;;13.93;;
14007;SDS011;61651;45.508;12.232;2023-04-01T04:05:00;16.63;;;14.00;;
14007;SDS011;61651;45.508;12.232;2023-04-01T04:08:03;14.83;;;13.20;;
14007;SDS011;61651;45.508;12.232;2023-04-01T04:11:05;15.70;;;12.53;;
14007;SDS011;61651;45.508;12.232;2023-04-01T04:14:07;13.57;;;12.17;;
14007;SDS011;61651;45.508;12.232;2023-04-01T04:17:10;25.10;;;11.93;;
14007;SDS011;61651;45.508;12.232;2023-04-01T04:20:16;16.87;;;13.20;;
14007;SDS011;61651;45.508;12.232;2023-04-01T04:23:19;15.17;;;13.30;;
14007;SDS011;61651;45.508;12.232;2023-04-01T04:26:21;14.13;;;12.67;;
14007;SDS011;61651;45.508;12.232;2023-04-01T04:29:23;16.80;;;10.20;;
14007;SDS011;61651;45.508;12.232;2023-04-01T04:32:25;14.47;;;10.50;;
14007;SDS011;61651;45.508;12.232;2023-04-01T04:35:27;12.27;;;10.13;;
14007;SDS011;61651;45.508;12.232;2023-04-01T04:38:31;15.53;;;10.87;;
14007;SDS011;61651;45.508;12.232;2023-04-01T04:41:33;12.50;;;11.30;;
14007;SDS011;61651;45.508;12.232;2023-04-01T04:44:35;27.63;;;11.73;;
14007;SDS011;61651;45.508;12.232;2023-04-01T04:47:37;16.40;;;10.90;;
14007;SDS011;61651;45.508;12.232;2023-04-01T04:50:40;18.23;;;12.17;;
14007;SDS011;61651;45.508;12.232;2023-04-01T04:53:43;21.23;;;13.13;;
14007;SDS011;61651;45.508;12.232;2023-04-01T04:56:45;13.37;;;11.37;;
14007;SDS011;61651;45.508;12.232;2023-04-01T04:59:47;18.70;;;10.83;;
14007;SDS011;61651;45.508;12.232;2023-04-01T05:02:49;17.83;;;11.77;;
14007;SDS011;61651;45.508;12.232;2023-04-01T05:05:52;17.00;;;11.83;;
14007;SDS011;61651;45.508;12.232;2023-04-01T05:08:56;15.47;;;11.97;;
14007;SDS011;61651;45.508;12.232;2023-04-01T05:11:58;12.43;;;11.23;;
14007;SDS011;61651;45.508;12.232;2023-04-01T05:15:00;10.73;;;9.73;;
14007;SDS011;61651;45.508;12.232;2023-04-01T05:18:02;11.40;;;10.20;;
14007;SDS011;61651;45.508;12.232;2023-04-01T05:21:04;14.43;;;10.77;;
14007;SDS011;61651;45.508;12.232;2023-04-01T05:24:09;10.43;;;9.43;;
14007;SDS011;61651;45.508;12.232;2023-04-01T05:27:11;10.07;;;8.93;;
14007;SDS011;61651;45.508;12.232;2023-04-01T05:30:13;11.57;;;9.87;;
14007;SDS011;61651;45.508;12.232;2023-04-01T05:33:15;10.57;;;9.47;;
14007;SDS011;61651;45.508;12.232;2023-04-01T05:36:17;10.50;;;9.40;;
14007;SDS011;61651;45.508;12.232;2023-04-01T05:39:21;12.27;;;10.60;;
14007;SDS011;61651;45.508;12.232;2023-04-01T05:42:23;11.27;;;10.17;;
14007;SDS011;61651;45.508;12.232;2023-04-01T05:45:25;12.80;;;11.23;;
14007;SDS011;61651;45.508;12.232;2023-04-01T05:48:28;12.93;;;11.63;;
14007;SDS011;61651;45.508;12.232;2023-04-01T05:51:30;16.30;;;9.97;;
14007;SDS011;61651;45.508;12.232;2023-04-01T05:54:33;18.17;;;10.00;;
14007;SDS011;61651;45.508;12.232;2023-04-01T05:57:35;10.97;;;9.53;;
14007;SDS011;61651;45.508;12.232;2023-04-01T06:00:37;10.67;;;9.57;;
14007;SDS011;61651;45.508;12.232;2023-04-01T06:03:39;11.73;;;10.63;;
14007;SDS011;61651;45.508;12.232;2023-04-01T06:06:41;12.27;;;10.93;;
14007;SDS011;61651;45.508;12.232;2023-04-01T06:09:45;12.03;;;10.73;;
14007;SDS011;61651;45.508;12.232;2023-04-01T06:12:51;12.93;;;11.53;;
14007;SDS011;61651;45.508;12.232;2023-04-01T06:16:04;12.90;;;11.70;;
14007;SDS011;61651;45.508;12.232;2023-04-01T06:19:15;18.97;;;14.97;;
14007;SDS011;61651;45.508;12.232;2023-04-01T06:22:32;16.33;;;13.90;;
14007;SDS011;61651;45.508;12.232;2023-04-01T06:26:01;17.20;;;14.53;;
14007;SDS011;61651;45.508;12.232;2023-04-01T06:29:25;17.10;;;15.20;;
14007;SDS011;61651;45.508;12.232;2023-04-01T06:32:56;20.13;;;15.67;;
14007;SDS011;61651;45.508;12.232;2023-04-01T06:36:14;17.90;;;15.50;;
14007;SDS011;61651;45.508;12.232;2023-04-01T06:39:42;18.27;;;15.20;;
14007;SDS011;61651;45.508;12.232;2023-04-01T06:43:06;19.07;;;15.17;;
14007;SDS011;61651;45.508;12.232;2023-04-01T06:46:18;18.70;;;14.50;;
14007;SDS011;61651;45.508;12.232;2023-04-01T06:49:29;15.70;;;13.43;;
14007;SDS011;61651;45.508;12.232;2023-04-01T06:52:43;15.83;;;12.73;;
14007;SDS011;61651;45.508;12.232;2023-04-01T06:55:51;16.60;;;12.60;;
14007;SDS011;61651;45.508;12.232;2023-04-01T06:59:00;12.93;;;11.53;;
14007;SDS011;61651;45.508;12.232;2023-04-01T07:02:11;13.53;;;11.50;;
14007;SDS011;61651;45.508;12.232;2023-04-01T07:05:24;11.53;;;10.33;;
14007;SDS011;61651;45.508;12.232;2023-04-01T07:08:31;10.40;;;8.77;;
14007;SDS011;61651;45.508;12.232;2023-04-01T07:11:37;9.67;;;8.27;;
14007;SDS011;61651;45.508;12.232;2023-04-01T07:14:41;11.57;;;8.37;;
14007;SDS011;61651;45.508;12.232;2023-04-01T07:17:44;7.30;;;6.37;;
14007;SDS011;61651;45.508;12.232;2023-04-01T07:20:49;8.03;;;6.77;;
14007;SDS011;61651;45.508;12.232;2023-04-01T07:23:54;8.73;;;7.83;;
14007;SDS011;61651;45.508;12.232;2023-04-01T07:27:01;7.63;;;6.33;;
14007;SDS011;61651;45.508;12.232;2023-04-01T07:30:06;6.70;;;5.90;;
14007;SDS011;61651;45.508;12.232;2023-04-01T07:33:16;6.13;;;5.53;;
14007;SDS011;61651;45.508;12.232;2023-04-01T07:36:24;6.00;;;5.20;;
14007;SDS011;61651;45.508;12.232;2023-04-01T07:39:36;6.73;;;4.83;;
14007;SDS011;61651;45.508;12.232;2023-04-01T07:42:46;4.93;;;4.43;;
14007;SDS011;61651;45.508;12.232;2023-04-01T07:46:00;5.60;;;4.60;;
14007;SDS011;61651;45.508;12.232;2023-04-01T07:49:11;5.17;;;4.63;;
14007;SDS011;61651;45.508;12.232;2023-04-01T07:52:18;4.70;;;4.27;;
14007;SDS011;61651;45.508;12.232;2023-04-01T07:55:26;3.70;;;3.33;;
14007;SDS011;61651;45.508;12.232;2023-04-01T07:58:36;3.83;;;3.53;;
14007;SDS011;61651;45.508;12.232;2023-04-01T08:01:49;4.23;;;3.70;;
14007;SDS011;61651;45.508;12.232;2023-04-01T08:05:00;4.43;;;4.03;;
14007;SDS011;61651;45.508;12.232;2023-04-01T08:08:11;4.73;;;4.23;;
14007;SDS011;61651;45.508;12.232;2023-04-01T08:11:22;4.77;;;3.90;;
14007;SDS011;61651;45.508;12.232;2023-04-01T08:14:32;4.53;;;3.60;;
14007;SDS011;61651;45.508;12.232;2023-04-01T08:17:43;5.17;;;4.10;;
14007;SDS011;61651;45.508;12.232;2023-04-01T08:20:53;4.75;;;4.25;;
14007;SDS011;61651;45.508;12.232;2023-04-01T08:24:00;4.55;;;4.15;;
14007;SDS011;61651;45.508;12.232;2023-04-01T08:27:13;4.80;;;3.40;;
14007;SDS011;61651;45.508;12.232;2023-04-01T08:30:19;3.90;;;3.50;;
14007;SDS011;61651;45.508;12.232;2023-04-01T08:33:26;4.47;;;3.80;;
14007;SDS011;61651;45.508;12.232;2023-04-01T08:36:31;4.82;;;3.80;;
14007;SDS011;61651;45.508;12.232;2023-04-01T08:39:37;5.32;;;4.22;;
14007;SDS011;61651;45.508;12.232;2023-04-01T08:42:49;4.63;;;4.22;;
14007;SDS011;61651;45.508;12.232;2023-04-01T08:46:06;4.75;;;4.15;;
14007;SDS011;61651;45.508;12.232;2023-04-01T08:49:32;6.72;;;4.00;;
14007;SDS011;61651;45.508;12.232;2023-04-01T08:52:47;5.82;;;4.63;;
14007;SDS011;61651;45.508;12.232;2023-04-01T08:56:00;4.80;;;4.38;;
14007;SDS011;61651;45.508;12.232;2023-04-01T08:59:30;3.83;;;3.53;;
14007;SDS011;61651;45.508;12.232;2023-04-01T09:02:50;6.95;;;4.13;;
14007;SDS011;61651;45.508;12.232;2023-04-01T09:13:25;4.55;;;4.05;;
14007;SDS011;61651;45.508;12.232;2023-04-01T09:16:57;5.47;;;4.22;;
14007;SDS011;61651;45.508;12.232;2023-04-01T09:20:28;4.63;;;4.20;;
14007;SDS011;61651;45.508;12.232;2023-04-01T09:23:59;4.53;;;4.22;;
14007;SDS011;61651;45.508;12.232;2023-04-01T09:27:25;4.38;;;3.95;;
14007;SDS011;61651;45.508;12.232;2023-04-01T09:30:38;3.40;;;3.10;;
14007;SDS011;61651;45.508;12.232;2023-04-01T09:34:01;4.18;;;3.78;;
14007;SDS011;61651;45.508;12.232;2023-04-01T09:37:34;4.32;;;3.50;;
14007;SDS011;61651;45.508;12.232;2023-04-01T09:40:41;3.47;;;3.13;;
14007;SDS011;61651;45.508;12.232;2023-04-01T09:43:54;4.30;;;3.90;;
14007;SDS011;61651;45.508;12.232;2023-04-01T09:47:09;4.88;;;3.80;;
14007;SDS011;61651;45.508;12.232;2023-04-01T09:50:27;3.33;;;3.03;;
14007;SDS011;61651;45.508;12.232;2023-04-01T09:53:42;3.60;;;3.30;;
14007;SDS011;61651;45.508;12.232;2023-04-01T09:57:07;3.47;;;2.90;;
14007;SDS011;61651;45.508;12.232;2023-04-01T10:00:38;3.60;;;3.22;;
14007;SDS011;61651;45.508;12.232;2023-04-01T10:04:11;6.03;;;3.55;;
14007;SDS011;61651;45.508;12.232;2023-04-01T10:11:14;3.72;;;3.42;;
14007;SDS011;61651;45.508;12.232;2023-04-01T10:22:11;5.40;;;3.60;;
14007;SDS011;61651;45.508;12.232;2023-04-01T10:33:11;4.43;;;3.58;;
14007;SDS011;61651;45.508;12.232;2023-04-01T10:43:40;3.58;;;3.13;;
14007;SDS011;61651;45.508;12.232;2023-04-01T10:57:53;4.63;;;3.75;;
14007;SDS011;61651;45.508;12.232;2023-04-01T11:05:07;4.80;;;3.65;;
14007;SDS011;61651;45.508;12.232;2023-04-01T11:16:03;4.50;;;4.10;;
14007;SDS011;61651;45.508;12.232;2023-04-01T11:19:45;4.68;;;3.85;;
14007;SDS011;61651;45.508;12.232;2023-04-01T11:23:30;5.35;;;3.92;;
14007;SDS011;61651;45.508;12.232;2023-04-01T11:26:50;4.40;;;3.50;;
14007;SDS011;61651;45.508;12.232;2023-04-01T11:30:02;4.95;;;4.20;;
14007;SDS011;61651;45.508;12.232;2023-04-01T11:33:14;5.53;;;4.18;;
14007;SDS011;61651;45.508;12.232;2023-04-01T11:36:26;7.63;;;4.85;;
14007;SDS011;61651;45.508;12.232;2023-04-01T11:39:41;4.97;;;3.65;;
14007;SDS011;61651;45.508;12.232;2023-04-01T11:42:55;6.45;;;5.80;;
14007;SDS011;61651;45.508;12.232;2023-04-01T11:46:16;5.90;;;4.97;;
14007;SDS011;61651;45.508;12.232;2023-04-01T11:49:28;6.13;;;5.53;;
14007;SDS011;61651;45.508;12.232;2023-04-01T11:52:42;8.23;;;5.45;;
14007;SDS011;61651;45.508;12.232;2023-04-01T11:56:00;5.80;;;5.15;;
14007;SDS011;61651;45.508;12.232;2023-04-01T11:59:21;5.57;;;5.07;;
14007;SDS011;61651;45.508;12.232;2023-04-01T12:02:42;4.93;;;4.43;;
14007;SDS011;61651;45.508;12.232;2023-04-01T12:05:58;5.20;;;4.70;;
14007;SDS011;61651;45.508;12.232;2023-04-01T12:09:08;7.97;;;5.30;;
14007;SDS011;61651;45.508;12.232;2023-04-01T12:12:22;6.18;;;5.28;;
14007;SDS011;61651;45.508;12.232;2023-04-01T12:15:34;5.30;;;4.72;;
14007;SDS011;61651;45.508;12.232;2023-04-01T12:18:46;9.17;;;6.80;;
14007;SDS011;61651;45.508;12.232;2023-04-01T12:21:57;6.50;;;5.28;;
14007;SDS011;61651;45.508;12.232;2023-04-01T12:25:18;5.55;;;5.00;;
14007;SDS011;61651;45.508;12.232;2023-04-01T12:28:33;4.85;;;4.43;;
14007;SDS011;61651;45.508;12.232;2023-04-01T12:31:47;6.10;;;5.47;;
14007;SDS011;61651;45.508;12.232;2023-04-01T12:35:02;7.13;;;5.63;;
14007;SDS011;61651;45.508;12.232;2023-04-01T12:38:20;5.85;;;5.30;;
14007;SDS011;61651;45.508;12.232;2023-04-01T12:41:32;6.38;;;5.78;;
14007;SDS011;61651;45.508;12.232;2023-04-01T12:44:51;6.15;;;5.05;;
14007;SDS011;61651;45.508;12.232;2023-04-01T12:51:46;5.25;;;4.75;;
14007;SDS011;61651;45.508;12.232;2023-04-01T12:55:07;7.57;;;5.55;;
14007;SDS011;61651;45.508;12.232;2023-04-01T12:58:52;5.80;;;5.22;;
14007;SDS011;61651;45.508;12.232;2023-04-01T13:02:14;5.55;;;5.00;;
14007;SDS011;61651;45.508;12.232;2023-04-01T13:05:41;5.00;;;4.47;;
14007;SDS011;61651;45.508;12.232;2023-04-01T13:09:12;5.97;;;5.30;;
14007;SDS011;61651;45.508;12.232;2023-04-01T13:12:32;6.30;;;5.70;;
14007;SDS011;61651;45.508;12.232;2023-04-01T13:15:44;6.28;;;4.57;;
14007;SDS011;61651;45.508;12.232;2023-04-01T13:18:54;5.43;;;4.88;;
14007;SDS011;61651;45.508;12.232;2023-04-01T13:22:04;5.22;;;4.72;;
14007;SDS011;61651;45.508;12.232;2023-04-01T13:25:13;5.18;;;4.68;;
14007;SDS011;61651;45.508;12.232;2023-04-01T13:28:28;6.60;;;5.13;;
14007;SDS011;61651;45.508;12.232;2023-04-01T13:31:38;5.32;;;4.82;;
14007;SDS011;61651;45.508;12.232;2023-04-01T13:34:51;5.97;;;5.47;;
14007;SDS011;61651;45.508;12.232;2023-04-01T13:38:12;7.22;;;6.53;;
14007;SDS011;61651;45.508;12.232;2023-04-01T13:41:55;6.47;;;5.35;;
14007;SDS011;61651;45.508;12.232;2023-04-01T13:45:14;7.22;;;5.60;;
14007;SDS011;61651;45.508;12.232;2023-04-01T13:48:27;6.68;;;5.68;;
14007;SDS011;61651;45.508;12.232;2023-04-01T13:51:43;6.28;;;5.68;;
14007;SDS011;61651;45.508;12.232;2023-04-01T13:55:00;6.50;;;5.83;;
14007;SDS011;61651;45.508;12.232;2023-04-01T13:58:23;6.18;;;5.60;;
14007;SDS011;61651;45.508;12.232;2023-04-01T14:01:48;7.60;;;5.60;;
14007;SDS011;61651;45.508;12.232;2023-04-01T14:05:01;5.90;;;4.55;;
14007;SDS011;61651;45.508;12.232;2023-04-01T14:08:20;6.88;;;5.38;;
14007;SDS011;61651;45.508;12.232;2023-04-01T14:11:34;6.00;;;5.40;;
14007;SDS011;61651;45.508;12.232;2023-04-01T14:14:48;5.50;;;4.95;;
14007;SDS011;61651;45.508;12.232;2023-04-01T14:18:07;5.28;;;4.55;;
14007;SDS011;61651;45.508;12.232;2023-04-01T14:21:22;5.47;;;4.95;;
14007;SDS011;61651;45.508;12.232;2023-04-01T14:24:53;5.90;;;4.30;;
14007;SDS011;61651;45.508;12.232;2023-04-01T14:28:09;5.63;;;4.45;;
14007;SDS011;61651;45.508;12.232;2023-04-01T14:31:21;5.28;;;4.28;;
14007;SDS011;61651;45.508;12.232;2023-04-01T14:34:41;3.50;;;3.20;;
14007;SDS011;61651;45.508;12.232;2023-04-01T14:38:01;4.57;;;3.38;;
14007;SDS011;61651;45.508;12.232;2023-04-01T14:41:15;2.97;;;2.70;;
14007;SDS011;61651;45.508;12.232;2023-04-01T14:44:35;4.70;;;4.30;;
14007;SDS011;61651;45.508;12.232;2023-04-01T14:47:56;5.07;;;4.20;;
14007;SDS011;61651;45.508;12.232;2023-04-01T14:51:08;5.20;;;4.50;;
14007;SDS011;61651;45.508;12.232;2023-04-01T14:54:17;7.15;;;4.10;;
14007;SDS011;61651;45.508;12.232;2023-04-01T14:57:25;5.95;;;4.35;;
14007;SDS011;61651;45.508;12.232;2023-04-01T15:00:29;4.35;;;3.95;;
14007;SDS011;61651;45.508;12.232;2023-04-01T15:03:51;4.45;;;3.88;;
14007;SDS011;61651;45.508;12.232;2023-04-01T15:07:06;5.35;;;3.65;;
14007;SDS011;61651;45.508;12.232;2023-04-01T15:10:31;4.43;;;4.03;;
14007;SDS011;61651;45.508;12.232;2023-04-01T15:13:56;3.85;;;3.55;;
14007;SDS011;61651;45.508;12.232;2023-04-01T15:17:21;4.65;;;3.90;;
14007;SDS011;61651;45.508;12.232;2023-04-01T15:23:59;4.82;;;4.15;;
14007;SDS011;61651;45.508;12.232;2023-04-01T15:27:11;4.85;;;4.45;;
14007;SDS011;61651;45.508;12.232;2023-04-01T15:30:25;4.70;;;4.30;;
14007;SDS011;61651;45.508;12.232;2023-04-01T15:33:43;3.88;;;3.58;;
14007;SDS011;61651;45.508;12.232;2023-04-01T15:36:56;4.72;;;3.67;;
14007;SDS011;61651;45.508;12.232;2023-04-01T15:40:07;4.53;;;4.13;;
14007;SDS011;61651;45.508;12.232;2023-04-01T15:43:22;8.82;;;4.30;;
14007;SDS011;61651;45.508;12.232;2023-04-01T15:46:41;5.22;;;3.47;;
14007;SDS011;61651;45.508;12.232;2023-04-01T15:49:46;6.75;;;3.90;;
14007;SDS011;61651;45.508;12.232;2023-04-01T15:52:56;4.80;;;4.38;;
14007;SDS011;61651;45.508;12.232;2023-04-01T15:56:18;5.07;;;3.70;;
14007;SDS011;61651;45.508;12.232;2023-04-01T15:59:42;5.28;;;3.90;;
14007;SDS011;61651;45.508;12.232;2023-04-01T16:03:06;4.25;;;3.83;;
14007;SDS011;61651;45.508;12.232;2023-04-01T16:06:34;4.57;;;4.03;;
14007;SDS011;61651;45.508;12.232;2023-04-01T16:09:56;4.82;;;4.35;;
14007;SDS011;61651;45.508;12.232;2023-04-01T16:13:12;4.35;;;3.95;;
14007;SDS011;61651;45.508;12.232;2023-04-01T16:16:28;5.95;;;4.18;;
14007;SDS011;61651;45.508;12.232;2023-04-01T16:19:41;7.13;;;5.28;;
14007;SDS011;61651;45.508;12.232;2023-04-01T16:22:54;4.80;;;4.03;;
14007;SDS011;61651;45.508;12.232;2023-04-01T16:26:01;5.38;;;4.30;;
14007;SDS011;61651;45.508;12.232;2023-04-01T16:29:09;5.90;;;4.30;;
14007;SDS011;61651;45.508;12.232;2023-04-01T16:32:23;5.38;;;4.38;;
14007;SDS011;61651;45.508;12.232;2023-04-01T16:35:39;5.38;;;4.80;;
14007;SDS011;61651;45.508;12.232;2023-04-01T16:38:47;7.53;;;4.68;;
14007;SDS011;61651;45.508;12.232;2023-04-01T16:42:06;6.78;;;4.57;;
14007;SDS011;61651;45.508;12.232;2023-04-01T16:45:21;5.13;;;4.70;;
14007;SDS011;61651;45.508;12.232;2023-04-01T16:48:34;6.68;;;4.38;;
14007;SDS011;61651;45.508;12.232;2023-04-01T16:51:57;6.85;;;5.25;;
14007;SDS011;61651;45.508;12.232;2023-04-01T16:55:12;5.70;;;5.15;;
14007;SDS011;61651;45.508;12.232;2023-04-01T16:58:18;8.02;;;5.47;;
14007;SDS011;61651;45.508;12.232;2023-04-01T17:01:26;7.97;;;6.30;;
14007;SDS011;61651;45.508;12.232;2023-04-01T17:04:34;7.15;;;6.45;;
14007;SDS011;61651;45.508;12.232;2023-04-01T17:07:46;8.80;;;6.60;;
14007;SDS011;61651;45.508;12.232;2023-04-01T17:10:58;7.15;;;5.93;;
14007;SDS011;61651;45.508;12.232;2023-04-01T17:14:07;7.07;;;5.55;;
14007;SDS011;61651;45.508;12.232;2023-04-01T17:17:18;6.32;;;5.72;;
14007;SDS011;61651;45.508;12.232;2023-04-01T17:20:31;6.30;;;5.70;;
14007;SDS011;61651;45.508;12.232;2023-04-01T17:23:43;7.85;;;6.65;;
14007;SDS011;61651;45.508;12.232;2023-04-01T17:26:52;11.48;;;6.10;;
14007;SDS011;61651;45.508;12.232;2023-04-01T17:30:13;9.63;;;6.60;;
14007;SDS011;61651;45.508;12.232;2023-04-01T17:33:32;7.68;;;6.75;;
14007;SDS011;61651;45.508;12.232;2023-04-01T17:36:56;9.05;;;6.63;;
14007;SDS011;61651;45.508;12.232;2023-04-01T17:40:15;7.20;;;6.15;;
14007;SDS011;61651;45.508;12.232;2023-04-01T17:43:34;7.07;;;6.15;;
14007;SDS011;61651;45.508;12.232;2023-04-01T17:46:48;6.78;;;5.70;;
14007;SDS011;61651;45.508;12.232;2023-04-01T17:50:12;10.98;;;6.90;;
14007;SDS011;61651;45.508;12.232;2023-04-01T17:53:26;8.25;;;7.20;;
14007;SDS011;61651;45.508;12.232;2023-04-01T17:56:39;7.93;;;7.10;;
14007;SDS011;61651;45.508;12.232;2023-04-01T17:59:52;9.27;;;8.30;;
14007;SDS011;61651;45.508;12.232;2023-04-01T18:03:06;9.18;;;8.23;;
14007;SDS011;61651;45.508;12.232;2023-04-01T18:06:25;13.55;;;10.05;;
14007;SDS011;61651;45.508;12.232;2023-04-01T18:09:38;15.98;;;12.48;;
14007;SDS011;61651;45.508;12.232;2023-04-01T18:13:07;18.77;;;15.13;;
14007;SDS011;61651;45.508;12.232;2023-04-01T18:16:43;25.63;;;17.00;;
14007;SDS011;61651;45.508;12.232;2023-04-01T18:20:00;25.52;;;18.40;;
14007;SDS011;61651;45.508;12.232;2023-04-01T18:23:14;23.65;;;19.88;;
14007;SDS011;61651;45.508;12.232;2023-04-01T18:26:28;28.60;;;21.55;;
14007;SDS011;61651;45.508;12.232;2023-04-01T18:29:36;32.45;;;21.88;;
14007;SDS011;61651;45.508;12.232;2023-04-01T18:32:44;30.20;;;24.20;;
14007;SDS011;61651;45.508;12.232;2023-04-01T18:35:50;33.17;;;24.13;;
14007;SDS011;61651;45.508;12.232;2023-04-01T18:38:55;33.55;;;24.58;;
14007;SDS011;61651;45.508;12.232;2023-04-01T18:42:03;34.70;;;24.15;;
14007;SDS011;61651;45.508;12.232;2023-04-01T18:45:17;31.58;;;23.98;;
14007;SDS011;61651;45.508;12.232;2023-04-01T18:48:33;30.65;;;24.92;;
14007;SDS011;61651;45.508;12.232;2023-04-01T18:51:44;35.85;;;25.02;;
14007;SDS011;61651;45.508;12.232;2023-04-01T18:55:15;32.53;;;25.10;;
14007;SDS011;61651;45.508;12.232;2023-04-01T18:58:24;37.53;;;24.38;;
14007;SDS011;61651;45.508;12.232;2023-04-01T19:01:36;33.63;;;24.35;;
14007;SDS011;61651;45.508;12.232;2023-04-01T19:04:43;35.25;;;24.33;;
14007;SDS011;61651;45.508;12.232;2023-04-01T19:07:51;30.75;;;23.77;;
14007;SDS011;61651;45.508;12.232;2023-04-01T19:10:57;36.55;;;25.20;;
14007;SDS011;61651;45.508;12.232;2023-04-01T19:14:11;31.85;;;24.50;;
14007;SDS011;61651;45.508;12.232;2023-04-01T19:17:20;35.97;;;24.90;;
14007;SDS011;61651;45.508;12.232;2023-04-01T19:20:31;34.50;;;25.98;;
14007;SDS011;61651;45.508;12.232;2023-04-01T19:27:18;33.42;;;24.88;;
14007;SDS011;61651;45.508;12.232;2023-04-01T19:33:59;30.85;;;24.38;;
14007;SDS011;61651;45.508;12.232;2023-04-01T19:37:10;32.58;;;23.20;;
14007;SDS011;61651;45.508;12.232;2023-04-01T19:40:29;30.23;;;22.15;;
14007;SDS011;61651;45.508;12.232;2023-04-01T19:43:47;32.60;;;23.45;;
14007;SDS011;61651;45.508;12.232;2023-04-01T19:46:57;32.45;;;23.55;;
14007;SDS011;61651;45.508;12.232;2023-04-01T19:50:09;33.47;;;24.73;;
14007;SDS011;61651;45.508;12.232;2023-04-01T19:53:20;30.05;;;23.63;;